sensor_id;sensor_type;location;lat;lon;timestamp;temperature;humidity
41547;DHT22;27271;45.412;10.852;2023-06-04T00:02:42;18.30;1.00
41547;DHT22;27271;45.412;10.852;2023-06-04T00:06:08;18.30;1.00
41547;DHT22;27271;45.412;10.852;2023-06-04T00:09:31;18.30;1.00
41547;DHT22;27271;45.412;10.852;2023-06-04T00:12:55;18.30;1.00
41547;DHT22;27271;45.412;10.852;2023-06-04T00:16:17;18.30;1.00
41547;DHT22;27271;45.412;10.852;2023-06-04T00:19:47;18.20;1.00
41547;DHT22;27271;45.412;10.852;2023-06-04T00:23:11;18.30;1.00
41547;DHT22;27271;45.412;10.852;2023-06-04T00:26:35;18.30;1.00
41547;DHT22;27271;45.412;10.852;2023-06-04T00:29:59;18.20;1.00
41547;DHT22;27271;45.412;10.852;2023-06-04T00:33:28;18.30;99.90
41547;DHT22;27271;45.412;10.852;2023-06-04T00:36:51;18.30;99.90
41547;DHT22;27271;45.412;10.852;2023-06-04T00:40:15;18.30;1.00
41547;DHT22;27271;45.412;10.852;2023-06-04T00:43:37;18.40;1.00
41547;DHT22;27271;45.412;10.852;2023-06-04T00:46:59;18.40;1.00
41547;DHT22;27271;45.412;10.852;2023-06-04T00:50:22;18.40;1.00
41547;DHT22;27271;45.412;10.852;2023-06-04T00:53:44;18.30;1.00
41547;DHT22;27271;45.412;10.852;2023-06-04T00:57:06;18.30;1.00
41547;DHT22;27271;45.412;10.852;2023-06-04T01:00:31;18.30;1.00
41547;DHT22;27271;45.412;10.852;2023-06-04T01:03:55;18.30;55.20
41547;DHT22;27271;45.412;10.852;2023-06-04T01:07:19;18.30;27.70
41547;DHT22;27271;45.412;10.852;2023-06-04T01:10:51;18.30;51.20
41547;DHT22;27271;45.412;10.852;2023-06-04T01:14:14;18.20;32.90
41547;DHT22;27271;45.412;10.852;2023-06-04T01:17:40;18.20;30.60
41547;DHT22;27271;45.412;10.852;2023-06-04T01:21:08;18.30;36.60
41547;DHT22;27271;45.412;10.852;2023-06-04T01:24:34;18.30;22.40
41547;DHT22;27271;45.412;10.852;2023-06-04T01:27:58;18.40;1.00
41547;DHT22;27271;45.412;10.852;2023-06-04T01:31:21;18.40;2.30
41547;DHT22;27271;45.412;10.852;2023-06-04T01:34:46;18.40;11.00
41547;DHT22;27271;45.412;10.852;2023-06-04T01:38:08;18.40;22.20
41547;DHT22;27271;45.412;10.852;2023-06-04T01:41:30;18.30;56.90
41547;DHT22;27271;45.412;10.852;2023-06-04T01:44:52;18.30;56.60
41547;DHT22;27271;45.412;10.852;2023-06-04T01:48:14;18.20;99.90
41547;DHT22;27271;45.412;10.852;2023-06-04T01:51:37;18.00;99.90
41547;DHT22;27271;45.412;10.852;2023-06-04T01:54:59;17.90;99.90
41547;DHT22;27271;45.412;10.852;2023-06-04T01:58:21;17.80;99.90
41547;DHT22;27271;45.412;10.852;2023-06-04T02:01:48;17.70;99.90
41547;DHT22;27271;45.412;10.852;2023-06-04T02:05:11;17.60;99.90
41547;DHT22;27271;45.412;10.852;2023-06-04T02:08:34;17.50;99.90
41547;DHT22;27271;45.412;10.852;2023-06-04T02:11:57;17.40;99.90
41547;DHT22;27271;45.412;10.852;2023-06-04T02:15:19;17.30;99.90
41547;DHT22;27271;45.412;10.852;2023-06-04T02:18:41;17.20;99.90
41547;DHT22;27271;45.412;10.852;2023-06-04T02:22:03;17.20;99.90
41547;DHT22;27271;45.412;10.852;2023-06-04T02:25:25;17.20;99.90
41547;DHT22;27271;45.412;10.852;2023-06-04T02:28:47;17.20;99.90
41547;DHT22;27271;45.412;10.852;2023-06-04T02:32:09;17.20;99.90
41547;DHT22;27271;45.412;10.852;2023-06-04T02:35:32;17.20;99.90
41547;DHT22;27271;45.412;10.852;2023-06-04T02:38:54;17.20;99.90
41547;DHT22;27271;45.412;10.852;2023-06-04T02:42:16;17.10;99.90
41547;DHT22;27271;45.412;10.852;2023-06-04T02:45:38;17.10;99.90
41547;DHT22;27271;45.412;10.852;2023-06-04T02:49:00;17.10;99.90
41547;DHT22;27271;45.412;10.852;2023-06-04T02:52:22;17.10;99.90
41547;DHT22;27271;45.412;10.852;2023-06-04T02:55:44;17.10;99.90
41547;DHT22;27271;45.412;10.852;2023-06-04T02:59:06;17.00;99.90
41547;DHT22;27271;45.412;10.852;2023-06-04T03:02:35;16.90;99.90
41547;DHT22;27271;45.412;10.852;2023-06-04T03:05:57;16.90;99.90
41547;DHT22;27271;45.412;10.852;2023-06-04T03:09:21;17.00;99.90
41547;DHT22;27271;45.412;10.852;2023-06-04T03:12:43;16.90;99.90
41547;DHT22;27271;45.412;10.852;2023-06-04T03:16:06;16.90;99.90
41547;DHT22;27271;45.412;10.852;2023-06-04T03:19:40;16.90;99.90
41547;DHT22;27271;45.412;10.852;2023-06-04T03:23:03;16.80;99.90
41547;DHT22;27271;45.412;10.852;2023-06-04T03:26:25;16.80;99.90
41547;DHT22;27271;45.412;10.852;2023-06-04T03:29:48;16.80;99.90
41547;DHT22;27271;45.412;10.852;2023-06-04T03:33:11;16.80;99.90
41547;DHT22;27271;45.412;10.852;2023-06-04T03:36:34;16.80;99.90
41547;DHT22;27271;45.412;10.852;2023-06-04T03:40:00;16.80;99.90
41547;DHT22;27271;45.412;10.852;2023-06-04T03:43:30;16.90;99.90
41547;DHT22;27271;45.412;10.852;2023-06-04T03:46:56;16.90;99.90
41547;DHT22;27271;45.412;10.852;2023-06-04T03:50:19;16.80;99.90
41547;DHT22;27271;45.412;10.852;2023-06-04T03:53:42;16.80;99.90
41547;DHT22;27271;45.412;10.852;2023-06-04T03:57:04;16.80;99.90
41547;DHT22;27271;45.412;10.852;2023-06-04T04:00:27;16.70;99.90
41547;DHT22;27271;45.412;10.852;2023-06-04T04:03:52;16.70;99.90
41547;DHT22;27271;45.412;10.852;2023-06-04T04:07:15;16.60;99.90
41547;DHT22;27271;45.412;10.852;2023-06-04T04:10:37;16.50;99.90
41547;DHT22;27271;45.412;10.852;2023-06-04T04:13:59;16.60;99.90
41547;DHT22;27271;45.412;10.852;2023-06-04T04:17:23;16.70;99.90
41547;DHT22;27271;45.412;10.852;2023-06-04T04:20:48;16.70;99.90
41547;DHT22;27271;45.412;10.852;2023-06-04T04:24:22;16.80;99.90
41547;DHT22;27271;45.412;10.852;2023-06-04T04:27:44;16.90;99.90
41547;DHT22;27271;45.412;10.852;2023-06-04T04:31:07;16.90;99.90
41547;DHT22;27271;45.412;10.852;2023-06-04T04:34:32;16.80;99.90
41547;DHT22;27271;45.412;10.852;2023-06-04T04:37:55;16.90;99.90
41547;DHT22;27271;45.412;10.852;2023-06-04T04:41:18;16.90;99.90
41547;DHT22;27271;45.412;10.852;2023-06-04T04:44:41;17.00;99.90
41547;DHT22;27271;45.412;10.852;2023-06-04T04:48:03;17.10;99.90
41547;DHT22;27271;45.412;10.852;2023-06-04T04:51:26;17.30;99.90
41547;DHT22;27271;45.412;10.852;2023-06-04T04:54:49;17.40;99.90
41547;DHT22;27271;45.412;10.852;2023-06-04T04:58:12;17.50;99.90
41547;DHT22;27271;45.412;10.852;2023-06-04T05:01:34;17.50;99.90
41547;DHT22;27271;45.412;10.852;2023-06-04T05:04:58;17.60;99.90
41547;DHT22;27271;45.412;10.852;2023-06-04T05:08:20;17.70;99.90
41547;DHT22;27271;45.412;10.852;2023-06-04T05:11:42;17.90;99.90
41547;DHT22;27271;45.412;10.852;2023-06-04T05:15:07;17.90;99.90
41547;DHT22;27271;45.412;10.852;2023-06-04T05:18:30;18.00;99.90
41547;DHT22;27271;45.412;10.852;2023-06-04T05:21:55;18.10;99.90
41547;DHT22;27271;45.412;10.852;2023-06-04T05:25:17;18.10;99.90
41547;DHT22;27271;45.412;10.852;2023-06-04T05:28:40;18.10;99.90
41547;DHT22;27271;45.412;10.852;2023-06-04T05:32:07;18.20;99.90
41547;DHT22;27271;45.412;10.852;2023-06-04T05:35:29;18.30;99.90
41547;DHT22;27271;45.412;10.852;2023-06-04T05:38:59;18.40;99.90
41547;DHT22;27271;45.412;10.852;2023-06-04T05:42:37;18.50;99.90
41547;DHT22;27271;45.412;10.852;2023-06-04T05:46:00;18.50;99.90
41547;DHT22;27271;45.412;10.852;2023-06-04T05:49:23;18.70;99.90
41547;DHT22;27271;45.412;10.852;2023-06-04T05:52:47;18.70;99.90
41547;DHT22;27271;45.412;10.852;2023-06-04T05:56:09;18.70;99.90
41547;DHT22;27271;45.412;10.852;2023-06-04T05:59:35;18.80;99.90
41547;DHT22;27271;45.412;10.852;2023-06-04T06:03:00;18.80;99.90
41547;DHT22;27271;45.412;10.852;2023-06-04T06:06:35;18.80;99.90
41547;DHT22;27271;45.412;10.852;2023-06-04T06:09:57;18.90;99.90
41547;DHT22;27271;45.412;10.852;2023-06-04T06:13:21;19.00;99.90
41547;DHT22;27271;45.412;10.852;2023-06-04T06:16:44;19.00;99.90
41547;DHT22;27271;45.412;10.852;2023-06-04T06:20:08;19.00;99.90
41547;DHT22;27271;45.412;10.852;2023-06-04T06:23:31;19.00;99.90
41547;DHT22;27271;45.412;10.852;2023-06-04T06:27:00;19.10;99.90
41547;DHT22;27271;45.412;10.852;2023-06-04T06:30:33;19.10;99.90
41547;DHT22;27271;45.412;10.852;2023-06-04T06:33:55;19.20;99.90
41547;DHT22;27271;45.412;10.852;2023-06-04T06:37:17;19.30;99.90
41547;DHT22;27271;45.412;10.852;2023-06-04T06:40:40;19.50;99.90
41547;DHT22;27271;45.412;10.852;2023-06-04T06:44:02;19.60;99.90
41547;DHT22;27271;45.412;10.852;2023-06-04T06:47:24;19.70;99.90
41547;DHT22;27271;45.412;10.852;2023-06-04T06:50:47;19.80;99.90
41547;DHT22;27271;45.412;10.852;2023-06-04T06:54:09;19.90;99.90
41547;DHT22;27271;45.412;10.852;2023-06-04T06:57:33;20.00;99.90
41547;DHT22;27271;45.412;10.852;2023-06-04T07:00:55;20.10;99.90
41547;DHT22;27271;45.412;10.852;2023-06-04T07:04:18;20.20;99.90
41547;DHT22;27271;45.412;10.852;2023-06-04T07:07:40;20.30;99.90
41547;DHT22;27271;45.412;10.852;2023-06-04T07:11:03;20.40;99.90
41547;DHT22;27271;45.412;10.852;2023-06-04T07:14:25;20.40;99.90
41547;DHT22;27271;45.412;10.852;2023-06-04T07:17:47;20.30;99.90
41547;DHT22;27271;45.412;10.852;2023-06-04T07:21:10;20.40;99.90
41547;DHT22;27271;45.412;10.852;2023-06-04T07:24:32;20.40;99.90
41547;DHT22;27271;45.412;10.852;2023-06-04T07:27:54;20.40;43.20
41547;DHT22;27271;45.412;10.852;2023-06-04T07:31:19;20.30;70.50
41547;DHT22;27271;45.412;10.852;2023-06-04T07:34:41;20.70;99.90
41547;DHT22;27271;45.412;10.852;2023-06-04T07:38:03;21.30;99.90
41547;DHT22;27271;45.412;10.852;2023-06-04T07:41:25;21.30;1.00
41547;DHT22;27271;45.412;10.852;2023-06-04T07:44:47;21.30;1.00
41547;DHT22;27271;45.412;10.852;2023-06-04T07:48:10;21.50;41.50
41547;DHT22;27271;45.412;10.852;2023-06-04T07:51:34;21.50;1.00
41547;DHT22;27271;45.412;10.852;2023-06-04T07:54:57;21.60;1.00
41547;DHT22;27271;45.412;10.852;2023-06-04T07:58:19;21.70;99.90
41547;DHT22;27271;45.412;10.852;2023-06-04T08:01:41;22.20;1.00
41547;DHT22;27271;45.412;10.852;2023-06-04T08:05:04;22.70;99.90
41547;DHT22;27271;45.412;10.852;2023-06-04T08:08:26;23.20;99.90
41547;DHT22;27271;45.412;10.852;2023-06-04T08:11:53;23.70;99.90
41547;DHT22;27271;45.412;10.852;2023-06-04T08:15:17;24.20;99.90
41547;DHT22;27271;45.412;10.852;2023-06-04T08:18:40;24.70;99.90
41547;DHT22;27271;45.412;10.852;2023-06-04T08:22:02;24.90;1.00
41547;DHT22;27271;45.412;10.852;2023-06-04T08:25:25;25.60;99.90
41547;DHT22;27271;45.412;10.852;2023-06-04T08:28:50;27.20;82.10
41547;DHT22;27271;45.412;10.852;2023-06-04T08:32:12;29.00;1.00
41547;DHT22;27271;45.412;10.852;2023-06-04T08:35:35;29.80;1.00
41547;DHT22;27271;45.412;10.852;2023-06-04T08:38:58;31.00;1.00
41547;DHT22;27271;45.412;10.852;2023-06-04T08:42:30;32.10;1.00
41547;DHT22;27271;45.412;10.852;2023-06-04T08:45:59;33.20;1.00
41547;DHT22;27271;45.412;10.852;2023-06-04T08:49:24;31.50;1.00
41547;DHT22;27271;45.412;10.852;2023-06-04T08:52:52;30.20;1.00
41547;DHT22;27271;45.412;10.852;2023-06-04T08:56:14;30.10;1.00
41547;DHT22;27271;45.412;10.852;2023-06-04T08:59:36;29.70;1.00
41547;DHT22;27271;45.412;10.852;2023-06-04T09:03:02;28.50;1.00
41547;DHT22;27271;45.412;10.852;2023-06-04T09:06:25;27.30;1.00
41547;DHT22;27271;45.412;10.852;2023-06-04T09:09:48;26.80;1.00
41547;DHT22;27271;45.412;10.852;2023-06-04T09:13:31;26.60;1.00
41547;DHT22;27271;45.412;10.852;2023-06-04T09:16:54;26.00;1.00
41547;DHT22;27271;45.412;10.852;2023-06-04T09:20:22;26.20;1.00
41547;DHT22;27271;45.412;10.852;2023-06-04T09:23:45;25.90;1.00
41547;DHT22;27271;45.412;10.852;2023-06-04T09:27:18;25.70;1.00
41547;DHT22;27271;45.412;10.852;2023-06-04T09:30:51;25.60;1.00
41547;DHT22;27271;45.412;10.852;2023-06-04T09:34:13;26.00;1.00
41547;DHT22;27271;45.412;10.852;2023-06-04T09:37:37;26.40;1.00
41547;DHT22;27271;45.412;10.852;2023-06-04T09:40:59;27.90;1.00
41547;DHT22;27271;45.412;10.852;2023-06-04T09:44:22;29.00;1.00
41547;DHT22;27271;45.412;10.852;2023-06-04T09:47:44;29.50;1.00
41547;DHT22;27271;45.412;10.852;2023-06-04T09:54:37;29.40;1.00
41547;DHT22;27271;45.412;10.852;2023-06-04T09:58:00;29.50;1.00
41547;DHT22;27271;45.412;10.852;2023-06-04T10:01:23;28.20;1.00
41547;DHT22;27271;45.412;10.852;2023-06-04T10:04:59;27.90;1.00
41547;DHT22;27271;45.412;10.852;2023-06-04T10:08:26;27.10;1.00
41547;DHT22;27271;45.412;10.852;2023-06-04T10:11:56;26.60;1.00
41547;DHT22;27271;45.412;10.852;2023-06-04T10:15:19;26.80;1.00
41547;DHT22;27271;45.412;10.852;2023-06-04T10:18:43;27.50;1.00
41547;DHT22;27271;45.412;10.852;2023-06-04T10:22:06;27.30;1.00
41547;DHT22;27271;45.412;10.852;2023-06-04T10:25:28;27.70;1.00
41547;DHT22;27271;45.412;10.852;2023-06-04T10:28:51;27.10;1.00
41547;DHT22;27271;45.412;10.852;2023-06-04T10:32:15;27.30;1.00
41547;DHT22;27271;45.412;10.852;2023-06-04T10:35:37;28.10;1.00
41547;DHT22;27271;45.412;10.852;2023-06-04T10:39:01;29.30;1.00
41547;DHT22;27271;45.412;10.852;2023-06-04T10:42:25;29.50;1.00
41547;DHT22;27271;45.412;10.852;2023-06-04T10:45:47;29.60;1.00
41547;DHT22;27271;45.412;10.852;2023-06-04T10:49:11;29.30;1.00
41547;DHT22;27271;45.412;10.852;2023-06-04T10:52:34;29.00;1.00
41547;DHT22;27271;45.412;10.852;2023-06-04T10:55:56;28.50;1.00
41547;DHT22;27271;45.412;10.852;2023-06-04T10:59:18;27.80;1.00
41547;DHT22;27271;45.412;10.852;2023-06-04T11:02:50;27.60;1.00
41547;DHT22;27271;45.412;10.852;2023-06-04T11:06:16;27.80;1.00
41547;DHT22;27271;45.412;10.852;2023-06-04T11:09:53;27.50;1.00
41547;DHT22;27271;45.412;10.852;2023-06-04T11:13:30;27.90;1.00
41547;DHT22;27271;45.412;10.852;2023-06-04T11:16:53;26.80;1.00
41547;DHT22;27271;45.412;10.852;2023-06-04T11:20:19;26.70;1.00
41547;DHT22;27271;45.412;10.852;2023-06-04T11:23:42;26.80;1.00
41547;DHT22;27271;45.412;10.852;2023-06-04T11:27:04;27.30;1.00
41547;DHT22;27271;45.412;10.852;2023-06-04T11:30:35;27.50;1.00
41547;DHT22;27271;45.412;10.852;2023-06-04T11:33:57;27.20;1.00
41547;DHT22;27271;45.412;10.852;2023-06-04T11:37:19;27.70;1.00
41547;DHT22;27271;45.412;10.852;2023-06-04T11:40:42;28.30;1.00
41547;DHT22;27271;45.412;10.852;2023-06-04T11:44:06;28.40;1.00
41547;DHT22;27271;45.412;10.852;2023-06-04T11:47:31;28.20;1.00
41547;DHT22;27271;45.412;10.852;2023-06-04T11:50:53;28.30;1.00
41547;DHT22;27271;45.412;10.852;2023-06-04T11:54:16;28.70;1.00
41547;DHT22;27271;45.412;10.852;2023-06-04T11:57:39;28.60;1.00
41547;DHT22;27271;45.412;10.852;2023-06-04T12:01:02;28.60;1.00
41547;DHT22;27271;45.412;10.852;2023-06-04T12:04:24;28.60;1.00
41547;DHT22;27271;45.412;10.852;2023-06-04T12:07:51;28.50;1.00
41547;DHT22;27271;45.412;10.852;2023-06-04T12:11:43;28.80;1.00
41547;DHT22;27271;45.412;10.852;2023-06-04T12:15:05;29.00;1.00
41547;DHT22;27271;45.412;10.852;2023-06-04T12:18:27;29.10;1.00
41547;DHT22;27271;45.412;10.852;2023-06-04T12:22:03;28.20;1.00
41547;DHT22;27271;45.412;10.852;2023-06-04T12:25:28;28.10;1.00
41547;DHT22;27271;45.412;10.852;2023-06-04T12:32:35;28.30;1.00
41547;DHT22;27271;45.412;10.852;2023-06-04T12:35:57;27.60;1.00
41547;DHT22;27271;45.412;10.852;2023-06-04T12:39:20;27.40;1.00
41547;DHT22;27271;45.412;10.852;2023-06-04T12:42:42;27.80;1.00
41547;DHT22;27271;45.412;10.852;2023-06-04T12:46:08;27.40;1.00
41547;DHT22;27271;45.412;10.852;2023-06-04T12:49:37;27.10;1.00
41547;DHT22;27271;45.412;10.852;2023-06-04T12:53:22;27.20;1.00
41547;DHT22;27271;45.412;10.852;2023-06-04T12:57:02;27.70;1.00
41547;DHT22;27271;45.412;10.852;2023-06-04T13:00:54;27.00;1.00
41547;DHT22;27271;45.412;10.852;2023-06-04T13:08:16;26.50;1.00
41547;DHT22;27271;45.412;10.852;2023-06-04T13:11:53;27.10;1.00
41547;DHT22;27271;45.412;10.852;2023-06-04T13:15:17;27.20;1.00
41547;DHT22;27271;45.412;10.852;2023-06-04T13:18:42;27.70;1.00
41547;DHT22;27271;45.412;10.852;2023-06-04T13:22:08;27.70;1.00
41547;DHT22;27271;45.412;10.852;2023-06-04T13:25:32;27.90;1.00
41547;DHT22;27271;45.412;10.852;2023-06-04T13:29:02;28.10;1.00
41547;DHT22;27271;45.412;10.852;2023-06-04T13:32:31;28.20;1.00
41547;DHT22;27271;45.412;10.852;2023-06-04T13:36:02;28.30;1.00
41547;DHT22;27271;45.412;10.852;2023-06-04T13:39:38;28.40;1.00
41547;DHT22;27271;45.412;10.852;2023-06-04T13:43:00;28.00;1.00
41547;DHT22;27271;45.412;10.852;2023-06-04T13:46:24;27.50;1.00
41547;DHT22;27271;45.412;10.852;2023-06-04T13:49:47;27.40;1.00
41547;DHT22;27271;45.412;10.852;2023-06-04T13:53:09;27.30;1.00
41547;DHT22;27271;45.412;10.852;2023-06-04T13:56:39;27.30;1.00
41547;DHT22;27271;45.412;10.852;2023-06-04T14:00:16;27.20;1.00
41547;DHT22;27271;45.412;10.852;2023-06-04T14:03:40;27.20;1.00
41547;DHT22;27271;45.412;10.852;2023-06-04T14:07:08;27.00;1.00
41547;DHT22;27271;45.412;10.852;2023-06-04T14:10:31;26.90;1.00
41547;DHT22;27271;45.412;10.852;2023-06-04T14:13:53;27.00;1.00
41547;DHT22;27271;45.412;10.852;2023-06-04T14:17:15;27.20;1.00
41547;DHT22;27271;45.412;10.852;2023-06-04T14:20:37;27.30;1.00
41547;DHT22;27271;45.412;10.852;2023-06-04T14:23:59;27.20;1.00
41547;DHT22;27271;45.412;10.852;2023-06-04T14:27:22;27.10;1.00
41547;DHT22;27271;45.412;10.852;2023-06-04T14:30:44;27.10;1.00
41547;DHT22;27271;45.412;10.852;2023-06-04T14:34:06;26.80;1.00
41547;DHT22;27271;45.412;10.852;2023-06-04T14:37:31;26.70;1.00
41547;DHT22;27271;45.412;10.852;2023-06-04T14:40:54;26.90;1.00
41547;DHT22;27271;45.412;10.852;2023-06-04T14:44:19;27.20;1.00
41547;DHT22;27271;45.412;10.852;2023-06-04T14:47:42;27.00;1.00
41547;DHT22;27271;45.412;10.852;2023-06-04T14:51:07;26.70;1.00
41547;DHT22;27271;45.412;10.852;2023-06-04T14:54:30;27.00;1.00
41547;DHT22;27271;45.412;10.852;2023-06-04T14:57:52;27.50;1.00
41547;DHT22;27271;45.412;10.852;2023-06-04T15:01:14;27.50;1.00
41547;DHT22;27271;45.412;10.852;2023-06-04T15:04:38;27.90;1.00
41547;DHT22;27271;45.412;10.852;2023-06-04T15:08:07;27.40;1.00
41547;DHT22;27271;45.412;10.852;2023-06-04T15:11:29;27.50;1.00
41547;DHT22;27271;45.412;10.852;2023-06-04T15:14:51;27.20;1.00
41547;DHT22;27271;45.412;10.852;2023-06-04T15:18:15;27.10;1.00
41547;DHT22;27271;45.412;10.852;2023-06-04T15:21:37;26.70;1.00
41547;DHT22;27271;45.412;10.852;2023-06-04T15:24:59;26.60;1.00
41547;DHT22;27271;45.412;10.852;2023-06-04T15:28:21;27.00;1.00
41547;DHT22;27271;45.412;10.852;2023-06-04T15:31:43;27.00;1.00
41547;DHT22;27271;45.412;10.852;2023-06-04T15:35:06;26.60;1.00
41547;DHT22;27271;45.412;10.852;2023-06-04T15:38:28;26.30;1.00
41547;DHT22;27271;45.412;10.852;2023-06-04T15:41:52;26.00;1.00
41547;DHT22;27271;45.412;10.852;2023-06-04T15:45:15;26.10;1.00
41547;DHT22;27271;45.412;10.852;2023-06-04T15:48:37;25.70;1.00
41547;DHT22;27271;45.412;10.852;2023-06-04T15:51:59;25.40;1.00
41547;DHT22;27271;45.412;10.852;2023-06-04T15:55:21;25.30;1.00
41547;DHT22;27271;45.412;10.852;2023-06-04T15:58:44;25.10;1.00
41547;DHT22;27271;45.412;10.852;2023-06-04T16:02:06;25.10;1.00
41547;DHT22;27271;45.412;10.852;2023-06-04T16:05:28;25.00;1.00
41547;DHT22;27271;45.412;10.852;2023-06-04T16:09:16;24.80;1.00
41547;DHT22;27271;45.412;10.852;2023-06-04T16:12:39;24.70;1.00
41547;DHT22;27271;45.412;10.852;2023-06-04T16:16:01;24.70;1.00
41547;DHT22;27271;45.412;10.852;2023-06-04T16:19:23;24.40;1.00
41547;DHT22;27271;45.412;10.852;2023-06-04T16:22:45;24.30;1.00
41547;DHT22;27271;45.412;10.852;2023-06-04T16:26:09;24.10;1.00
41547;DHT22;27271;45.412;10.852;2023-06-04T16:29:31;23.90;1.00
41547;DHT22;27271;45.412;10.852;2023-06-04T16:32:53;23.90;1.00
41547;DHT22;27271;45.412;10.852;2023-06-04T16:36:15;23.70;1.00
41547;DHT22;27271;45.412;10.852;2023-06-04T16:39:37;23.70;1.00
41547;DHT22;27271;45.412;10.852;2023-06-04T16:43:03;23.50;1.00
41547;DHT22;27271;45.412;10.852;2023-06-04T16:46:35;23.50;1.00
41547;DHT22;27271;45.412;10.852;2023-06-04T16:49:58;23.40;1.00
41547;DHT22;27271;45.412;10.852;2023-06-04T16:53:21;23.40;1.00
41547;DHT22;27271;45.412;10.852;2023-06-04T16:56:43;23.30;1.00
41547;DHT22;27271;45.412;10.852;2023-06-04T17:00:06;23.30;1.00
41547;DHT22;27271;45.412;10.852;2023-06-04T17:03:46;23.30;1.00
41547;DHT22;27271;45.412;10.852;2023-06-04T17:07:11;23.20;1.00
41547;DHT22;27271;45.412;10.852;2023-06-04T17:10:33;23.20;1.00
41547;DHT22;27271;45.412;10.852;2023-06-04T17:13:55;23.10;1.00
41547;DHT22;27271;45.412;10.852;2023-06-04T17:17:49;23.10;1.00
41547;DHT22;27271;45.412;10.852;2023-06-04T17:21:12;23.10;1.00
41547;DHT22;27271;45.412;10.852;2023-06-04T17:24:36;22.90;72.90
41547;DHT22;27271;45.412;10.852;2023-06-04T17:27:58;22.70;99.90
41547;DHT22;27271;45.412;10.852;2023-06-04T17:31:20;22.10;75.10
41547;DHT22;27271;45.412;10.852;2023-06-04T17:34:46;21.90;1.00
41547;DHT22;27271;45.412;10.852;2023-06-04T17:38:08;21.60;99.90
41547;DHT22;27271;45.412;10.852;2023-06-04T17:41:30;21.30;1.00
41547;DHT22;27271;45.412;10.852;2023-06-04T17:44:52;21.00;1.00
41547;DHT22;27271;45.412;10.852;2023-06-04T17:48:15;20.70;73.10
41547;DHT22;27271;45.412;10.852;2023-06-04T17:51:45;20.40;99.90
41547;DHT22;27271;45.412;10.852;2023-06-04T17:55:07;20.10;99.90
41547;DHT22;27271;45.412;10.852;2023-06-04T17:58:30;20.10;99.90
41547;DHT22;27271;45.412;10.852;2023-06-04T18:01:52;19.80;1.00
41547;DHT22;27271;45.412;10.852;2023-06-04T18:05:14;19.00;99.90
41547;DHT22;27271;45.412;10.852;2023-06-04T18:08:39;18.60;99.90
41547;DHT22;27271;45.412;10.852;2023-06-04T18:12:34;18.30;99.90
41547;DHT22;27271;45.412;10.852;2023-06-04T18:15:58;18.20;99.90
41547;DHT22;27271;45.412;10.852;2023-06-04T18:19:20;18.00;99.90
41547;DHT22;27271;45.412;10.852;2023-06-04T18:22:44;17.90;99.90
41547;DHT22;27271;45.412;10.852;2023-06-04T18:26:06;17.90;99.90
41547;DHT22;27271;45.412;10.852;2023-06-04T18:29:29;17.80;99.90
41547;DHT22;27271;45.412;10.852;2023-06-04T18:32:51;17.70;99.90
41547;DHT22;27271;45.412;10.852;2023-06-04T18:36:15;17.60;99.90
41547;DHT22;27271;45.412;10.852;2023-06-04T18:39:37;17.60;99.90
41547;DHT22;27271;45.412;10.852;2023-06-04T18:42:59;17.60;99.90
41547;DHT22;27271;45.412;10.852;2023-06-04T18:46:22;17.60;99.90
41547;DHT22;27271;45.412;10.852;2023-06-04T18:49:44;17.50;99.90
41547;DHT22;27271;45.412;10.852;2023-06-04T18:53:07;17.40;99.90
41547;DHT22;27271;45.412;10.852;2023-06-04T18:56:31;17.30;99.90
41547;DHT22;27271;45.412;10.852;2023-06-04T18:59:56;17.30;99.90
41547;DHT22;27271;45.412;10.852;2023-06-04T19:03:20;17.40;99.90
41547;DHT22;27271;45.412;10.852;2023-06-04T19:06:47;17.40;99.90
41547;DHT22;27271;45.412;10.852;2023-06-04T19:10:11;17.40;99.90
41547;DHT22;27271;45.412;10.852;2023-06-04T19:13:40;17.40;99.90
41547;DHT22;27271;45.412;10.852;2023-06-04T19:17:14;17.40;99.90
41547;DHT22;27271;45.412;10.852;2023-06-04T19:20:45;17.30;99.90
41547;DHT22;27271;45.412;10.852;2023-06-04T19:24:12;17.20;99.90
41547;DHT22;27271;45.412;10.852;2023-06-04T19:27:40;17.20;99.90
41547;DHT22;27271;45.412;10.852;2023-06-04T19:31:04;17.10;99.90
41547;DHT22;27271;45.412;10.852;2023-06-04T19:34:27;17.20;99.90
41547;DHT22;27271;45.412;10.852;2023-06-04T19:37:49;17.20;99.90
41547;DHT22;27271;45.412;10.852;2023-06-04T19:41:11;17.10;99.90
41547;DHT22;27271;45.412;10.852;2023-06-04T19:44:33;17.10;99.90
41547;DHT22;27271;45.412;10.852;2023-06-04T19:47:55;17.10;99.90
41547;DHT22;27271;45.412;10.852;2023-06-04T19:51:19;17.10;99.90
41547;DHT22;27271;45.412;10.852;2023-06-04T19:54:42;17.10;99.90
41547;DHT22;27271;45.412;10.852;2023-06-04T19:58:05;17.10;99.90
41547;DHT22;27271;45.412;10.852;2023-06-04T20:01:28;17.10;99.90
41547;DHT22;27271;45.412;10.852;2023-06-04T20:04:50;17.10;99.90
41547;DHT22;27271;45.412;10.852;2023-06-04T20:08:14;17.00;99.90
41547;DHT22;27271;45.412;10.852;2023-06-04T20:11:38;17.00;99.90
41547;DHT22;27271;45.412;10.852;2023-06-04T20:15:00;17.00;99.90
41547;DHT22;27271;45.412;10.852;2023-06-04T20:18:22;17.10;99.90
41547;DHT22;27271;45.412;10.852;2023-06-04T20:21:50;17.20;99.90
41547;DHT22;27271;45.412;10.852;2023-06-04T20:25:12;17.20;99.90
41547;DHT22;27271;45.412;10.852;2023-06-04T20:28:34;17.10;99.90
41547;DHT22;27271;45.412;10.852;2023-06-04T20:31:56;17.00;99.90
41547;DHT22;27271;45.412;10.852;2023-06-04T20:35:22;16.90;99.90
41547;DHT22;27271;45.412;10.852;2023-06-04T20:38:44;16.90;99.90
41547;DHT22;27271;45.412;10.852;2023-06-04T20:42:07;16.90;99.90
41547;DHT22;27271;45.412;10.852;2023-06-04T20:45:29;16.80;99.90
41547;DHT22;27271;45.412;10.852;2023-06-04T20:48:51;16.70;99.90
41547;DHT22;27271;45.412;10.852;2023-06-04T20:52:13;16.70;99.90
41547;DHT22;27271;45.412;10.852;2023-06-04T20:55:35;16.70;99.90
41547;DHT22;27271;45.412;10.852;2023-06-04T20:58:58;16.70;99.90
41547;DHT22;27271;45.412;10.852;2023-06-04T21:02:20;16.70;99.90
41547;DHT22;27271;45.412;10.852;2023-06-04T21:05:44;16.70;99.90
41547;DHT22;27271;45.412;10.852;2023-06-04T21:09:06;16.60;99.90
41547;DHT22;27271;45.412;10.852;2023-06-04T21:12:29;16.60;99.90
41547;DHT22;27271;45.412;10.852;2023-06-04T21:15:51;16.60;99.90
41547;DHT22;27271;45.412;10.852;2023-06-04T21:19:13;16.60;99.90
41547;DHT22;27271;45.412;10.852;2023-06-04T21:22:36;16.70;99.90
41547;DHT22;27271;45.412;10.852;2023-06-04T21:25:58;16.60;99.90
41547;DHT22;27271;45.412;10.852;2023-06-04T21:29:20;16.70;99.90
41547;DHT22;27271;45.412;10.852;2023-06-04T21:32:42;16.70;99.90